This is the latest recevied weather packets stored in our database for station/object SV2BZQ-2. If no packets are shown the sender has not sent any weather packets the latest 10 day(s).
| Time | Temp. | Humidity | Pressure | Rain* | Wind** | Luminosity | Snow |
|---|---|---|---|---|---|---|---|
| 1778171558 | 21.67° C | 68% | 1015 hPa | 0 mm | - | 25 W/m² | - |
| 1778168682 | 21.67° C | 68% | 1015.2 hPa | 0 mm | - | 105 W/m² | - |
| 1778167167 | 21.67° C | 67% | 1015.7 hPa | 0 mm | - | 141 W/m² | - |
| 1778164406 | 22.22° C | 69% | 1015.7 hPa | 0 mm | - | 246 W/m² | - |
| 1778163655 | 22.22° C | 69% | 1015.7 hPa | 0 mm | - | 244 W/m² | - |
| 1778160872 | 20.56° C | 73% | 1012.4 hPa | 0 mm | - | 12 W/m² | - |
| 1778159906 | 20.56° C | 73% | 1015.5 hPa | 0 mm | - | 466 W/m² | - |
| 1778159208 | 20° C | 74% | 1015.8 hPa | 0 mm | - | 264 W/m² | - |
| 1778156782 | 18.89° C | 79% | 1016.4 hPa | 0 mm | - | 362 W/m² | - |
| 1778154990 | 18.89° C | 81% | 1016.7 hPa | 0 mm | - | 111 W/m² | - |
| 1778154942 | 22.78° C | 66% | 1012.6 hPa | 0 mm | - | 253 W/m² | - |
| 1778154196 | 25° C | 60% | 1012.8 hPa | 0 mm | - | 573 W/m² | - |
| 1778151976 | 19.44° C | 79% | 1017.5 hPa | 0 mm | - | 113 W/m² | - |
| 1778149050 | 21.11° C | 70% | 1017.2 hPa | 0 mm | - | 88 W/m² | - |
| 1778148822 | 21.11° C | 69% | 1017.2 hPa | 0 mm | - | 118 W/m² | - |
| 1778146472 | 21.11° C | 69% | 1016.7 hPa | 0 mm | - | 179 W/m² | - |
| 1778145385 | 21.11° C | 71% | 1016.2 hPa | 0 mm | - | 163 W/m² | - |
| 1778144031 | 21.11° C | 73% | 1016.2 hPa | 0 mm | - | 171 W/m² | - |
| 1778143691 | 21.11° C | 74% | 1016.1 hPa | 0 mm | - | 153 W/m² | - |
| 1778143366 | 21.11° C | 73% | 1015.9 hPa | 0 mm | - | 137 W/m² | - |
| 1778139858 | 20° C | 74% | 1015 hPa | 0 mm | - | 183 W/m² | - |
| 1778136942 | 18.89° C | 81% | 1015.4 hPa | 0 mm | - | 473 W/m² | - |
| 1778135346 | 18.33° C | 83% | 1015.3 hPa | 0 mm | - | 468 W/m² | - |
| 1778134824 | 17.78° C | 85% | 1015.2 hPa | 0 mm | - | 178 W/m² | - |
| 1778132517 | 15.56° C | 90% | 1015.1 hPa | 0 mm | - | 287 W/m² | - |
* Rain latest hour (hover to see other rain measurements)
** Current wind speed in m/s (hover to see current wind gust speed)